SR-SS   ¦   EYVI 0400-1623UTC    ¦   EYKA 0405-1628UTC    ¦   EYSA 0408-1632UTC    ¦   EYPA 0416-1641UTC


***********************WWW.PILOTUMOKYKLA.LT**********************
****************************WX START*****************************

EYVI - Vilnius International (ATIS: 125.8)
(VFR) EYVI 192350Z 10003KT CAVOK 08/07 Q1018 TEMPO 1500 BR
(VFR) EYVI 192320Z 14003KT CAVOK 08/08 Q1018 TEMPO 1500 BR
(VFR) EYVI 192250Z 14002KT CAVOK 08/08 Q1018 TEMPO 1500 BR

short-TAF out of date. Last updated: 31-12-1969 2359 UTC

long-TAF out of date. Last updated: 31-12-1969 2359 UTC
=============================================================

EYKA - Kaunas International (ATIS: 129.05)
(LIFR) EYKA 192350Z AUTO 07001KT 9000 OVC001/// 07/05 Q1017
(MVFR) EYKA 192320Z AUTO 12001KT 7000 FEW002/// 07/05 Q1017
(LIFR) EYKA 192250Z AUTO 14003KT 9000 BKN001/// 06/05 Q1017

short-TAF out of date. Last updated: 31-12-1969 2359 UTC

long-TAF out of date. Last updated: 31-12-1969 2359 UTC
=============================================================

EYSA - Siauliai International (Military) (ATIS: 120.75)
() EYSA 192350Z AUTO 20007KT 9999NDV NCD 08/07 Q1017
() EYSA 192320Z AUTO 21005KT 9999NDV BR NCD 07/07 Q1017
() EYSA 192250Z AUTO 20005KT 9999NDV NCD 08/07 Q1017

short-TAF out of date. Last updated: 31-12-1969 2359 UTC

long-TAF out of date. Last updated: 31-12-1969 2359 UTC
=============================================================

EYPA - Palanga International (ATIS: 127.8)
(VFR) EYPA 192350Z AUTO 24005KT 200V270 9999 FEW026/// 14/09 Q1015
(VFR) EYPA 192320Z AUTO 23004KT 190V290 9999 FEW028/// 14/09 Q1015
(VFR) EYPA 192250Z AUTO 23005KT 190V290 9999 FEW029/// 14/09 Q1015

short-TAF out of date. Last updated: 31-12-1969 2359 UTC

long-TAF out of date. Last updated: 31-12-1969 2359 UTC
=============================================================

UMMG - Hrodna International (ATIS: 135.02)
short-TAF out of date. Last updated: 31-12-1969 2359 UTC

long-TAF out of date. Last updated: 31-12-1969 2359 UTC
=============================================================

NOTE: WX Report includes all metar's issued in last 1:30h and latest TAF's.

******************************WX END*********************************
***********************************************************************